Time;durP1;ratioP1;P1;durP2;ratioP2;P2;SDS_P1;SDS_P2;PMS_P1;PMS_P2;Temp;Humidity;BMP_temperature;BMP_pressure;BME280_temperature;BME280_humidity;BME280_pressure;Samples;Min_cycle;Max_cycle;Signal;HPM_P1;HPM_P2
2022/04/17 00:00:29;;;;;;;0.30;0.10;;;6.80;55.00;;;;;;5124815;27;20238;-87
2022/04/17 00:02:56;;;;;;;0.30;0.20;;;6.40;50.70;;;;;;5112526;28;20201;-86
2022/04/17 00:05:23;;;;;;;0.30;0.17;;;7.00;55.80;;;;;;5116419;27;20220;-85
2022/04/17 00:07:52;;;;;;;0.30;0.20;;;6.90;50.30;;;;;;5109149;28;20625;-86
2022/04/17 00:10:20;;;;;;;0.52;0.50;;;6.90;50.30;;;;;;5121768;28;20197;-87
2022/04/17 00:12:49;;;;;;;0.30;0.20;;;6.90;51.20;;;;;;5122757;27;20214;-87
2022/04/17 00:15:16;;;;;;;1.35;0.50;;;6.90;50.60;;;;;;5117478;28;20193;-86
2022/04/17 00:17:43;;;;;;;0.50;0.45;;;6.80;56.80;;;;;;5125780;27;20640;-87
2022/04/17 00:20:12;;;;;;;0.40;0.30;;;6.80;50.60;;;;;;5128546;27;20265;-86
2022/04/17 00:22:40;;;;;;;0.40;0.30;;;6.70;51.30;;;;;;5115918;27;20283;-86
2022/04/17 00:25:12;;;;;;;0.30;0.20;;;6.70;51.60;;;;;;5115365;27;20190;-88
2022/04/17 00:27:40;;;;;;;0.30;0.20;;;7.00;58.00;;;;;;5114712;28;20202;-86
2022/04/17 00:30:09;;;;;;;0.40;0.40;;;6.80;56.90;;;;;;5125465;27;20201;-86
2022/04/17 00:32:38;;;;;;;0.30;0.22;;;6.70;51.00;;;;;;5107820;28;20210;-87
2022/04/17 00:35:09;;;;;;;0.30;0.10;;;6.70;52.10;;;;;;5116136;28;20668;-87
2022/04/17 00:37:37;;;;;;;0.30;0.30;;;6.60;52.40;;;;;;5113851;27;20201;-86
2022/04/17 00:40:06;;;;;;;0.30;0.30;;;6.60;59.50;;;;;;5123836;27;20203;-86
2022/04/17 00:42:34;;;;;;;0.30;0.20;;;6.00;54.10;;;;;;5107676;28;20194;-88
2022/04/17 00:45:01;;;;;;;0.40;0.30;;;6.20;53.00;;;;;;5115407;27;20641;-86
2022/04/17 00:47:28;;;;;;;0.30;0.20;;;6.10;53.20;;;;;;5127225;27;20234;-87
2022/04/17 00:49:55;;;;;;;0.30;0.20;;;6.20;53.60;;;;;;5131409;27;20287;-86
2022/04/17 00:52:23;;;;;;;0.47;0.45;;;6.20;53.10;;;;;;5116675;27;20795;-85
2022/04/17 00:54:50;;;;;;;0.30;0.30;;;6.20;52.60;;;;;;5119191;27;20295;-85
2022/04/17 00:57:18;;;;;;;0.50;0.40;;;6.00;56.80;;;;;;5111177;27;20194;-86
2022/04/17 00:59:49;;;;;;;0.57;0.40;;;6.20;52.40;;;;;;5121480;27;20201;-86
2022/04/17 01:02:17;;;;;;;0.30;0.30;;;6.30;52.30;;;;;;5123257;27;20201;-87
2022/04/17 01:04:44;;;;;;;0.30;0.20;;;6.30;52.20;;;;;;5111162;27;20267;-86
2022/04/17 01:07:11;;;;;;;0.32;0.32;;;7.30;53.20;;;;;;5123302;27;20192;-84
2022/04/17 01:09:39;;;;;;;0.40;0.28;;;5.90;56.30;;;;;;5110634;27;20202;-86
2022/04/17 01:12:09;;;;;;;0.40;0.28;;;6.20;52.30;;;;;;5120790;27;20198;-88
2022/04/17 01:14:41;;;;;;;0.73;0.73;;;6.70;58.30;;;;;;5126594;27;20312;-86
2022/04/17 01:17:10;;;;;;;0.40;0.40;;;6.20;57.90;;;;;;5125119;27;20197;-86
2022/04/17 01:19:39;;;;;;;0.40;0.28;;;6.10;52.50;;;;;;5112983;27;20220;-88
2022/04/17 01:22:11;;;;;;;0.40;0.40;;;6.20;57.70;;;;;;5109810;28;20256;-87
2022/04/17 01:27:25;;;;;;;0.30;0.20;;;6.10;55.10;;;;;;5098370;27;20212;-87
2022/04/17 01:29:53;;;;;;;0.40;0.30;;;6.00;52.30;;;;;;5124704;27;20273;-85
2022/04/17 01:32:20;;;;;;;0.30;0.20;;;6.10;57.90;;;;;;5112494;27;20741;-87
2022/04/17 01:34:48;;;;;;;1.48;1.42;;;5.80;59.00;;;;;;5126729;27;20198;-87
2022/04/17 01:37:17;;;;;;;1.05;0.95;;;5.90;52.70;;;;;;5117832;27;20201;-86
2022/04/17 01:39:47;;;;;;;0.30;0.20;;;5.90;52.70;;;;;;5127349;27;20227;-86
2022/04/17 01:42:16;;;;;;;0.40;0.30;;;5.90;53.00;;;;;;5127475;27;20800;-88
2022/04/17 01:44:43;;;;;;;0.43;0.43;;;5.80;52.90;;;;;;5129712;27;20285;-86
2022/04/17 01:47:11;;;;;;;0.30;0.28;;;5.60;53.60;;;;;;5117505;27;20200;-86
2022/04/17 01:49:38;;;;;;;0.30;0.20;;;5.80;58.80;;;;;;5117827;27;20201;-86
2022/04/17 01:52:05;;;;;;;0.30;0.20;;;5.70;54.40;;;;;;5129449;27;20200;-87
2022/04/17 01:54:33;;;;;;;0.40;0.35;;;5.80;53.30;;;;;;5130595;27;20192;-86
2022/04/17 01:57:01;;;;;;;0.30;0.20;;;5.70;58.70;;;;;;5128312;27;20197;-88
2022/04/17 01:59:28;;;;;;;0.30;0.20;;;5.80;53.80;;;;;;5096547;28;20217;-86
2022/04/17 02:01:56;;;;;;;0.68;0.35;;;5.60;58.10;;;;;;5110843;27;20190;-87
2022/04/17 02:04:26;;;;;;;0.70;0.50;;;5.60;54.10;;;;;;5122673;27;20226;-85
2022/04/17 02:06:53;;;;;;;0.47;0.40;;;5.60;54.10;;;;;;5110673;27;20224;-87
2022/04/17 02:09:20;;;;;;;0.77;0.77;;;5.70;53.80;;;;;;5126919;27;20225;-86
2022/04/17 02:11:49;;;;;;;0.40;0.30;;;5.50;58.60;;;;;;5116376;27;20194;-86
2022/04/17 02:14:16;;;;;;;0.30;0.20;;;5.50;59.50;;;;;;5127836;27;20698;-86
2022/04/17 02:16:43;;;;;;;0.30;0.20;;;5.50;54.20;;;;;;5109929;27;20664;-86
2022/04/17 02:19:10;;;;;;;0.30;0.30;;;5.30;59.70;;;;;;5114088;27;20205;-87
2022/04/17 02:21:37;;;;;;;0.30;0.20;;;5.50;55.20;;;;;;5122389;27;20198;-85
2022/04/17 02:24:04;;;;;;;0.30;0.20;;;5.50;54.60;;;;;;5096843;27;20236;-86
2022/04/17 02:26:32;;;;;;;0.30;0.25;;;5.50;54.80;;;;;;5100623;27;20199;-85
2022/04/17 02:29:02;;;;;;;0.30;0.20;;;5.50;59.20;;;;;;5091100;27;20210;-86
2022/04/17 02:31:30;;;;;;;0.95;0.93;;;5.60;59.50;;;;;;5130138;27;20552;-86
2022/04/17 02:33:59;;;;;;;0.40;0.30;;;5.50;54.40;;;;;;5109778;27;20201;-85
2022/04/17 02:36:28;;;;;;;1.02;0.82;;;5.60;54.80;;;;;;5109246;27;20795;-86
2022/04/17 02:38:55;;;;;;;0.30;0.30;;;5.50;55.00;;;;;;5114417;27;20668;-87
2022/04/17 02:41:22;;;;;;;0.30;0.20;;;5.60;54.50;;;;;;5109809;27;20267;-87
2022/04/17 02:43:49;;;;;;;0.40;0.40;;;5.50;54.40;;;;;;5111690;27;20283;-86
2022/04/17 02:47:42;;;;;;;0.60;0.40;;;5.40;54.50;;;;;;5129709;27;20189;-87
2022/04/17 02:49:04;;;;;;;0.30;0.20;;;5.40;54.60;;;;;;5114179;27;20209;-85
2022/04/17 02:51:33;;;;;;;0.40;0.35;;;5.50;54.80;;;;;;5109585;28;20194;-86
2022/04/17 02:54:00;;;;;;;0.30;0.20;;;6.00;59.30;;;;;;5109689;27;20202;-86
2022/04/17 02:56:27;;;;;;;0.40;0.40;;;5.40;54.60;;;;;;5109196;28;20255;-86
2022/04/17 02:58:54;;;;;;;0.40;0.22;;;5.40;54.90;;;;;;5110607;27;20307;-86
2022/04/17 03:06:52;;;;;;;0.30;0.25;;;5.30;55.00;;;;;;5123500;27;20217;-85
2022/04/17 03:09:19;;;;;;;0.40;0.30;;;5.20;55.10;;;;;;5114734;27;20232;-85
2022/04/17 03:11:46;;;;;;;0.40;0.38;;;5.20;55.20;;;;;;5114858;27;20186;-87
2022/04/17 03:14:14;;;;;;;0.75;0.40;;;5.20;55.20;;;;;;5110084;27;20193;-86
2022/04/17 03:16:42;;;;;;;0.30;0.20;;;5.00;55.00;;;;;;5127362;27;20246;-85
2022/04/17 03:19:09;;;;;;;0.50;0.43;;;5.20;60.80;;;;;;5126458;27;20701;-86
2022/04/17 03:21:36;;;;;;;0.55;0.55;;;5.10;55.60;;;;;;5124480;27;20190;-86
2022/04/17 03:24:03;;;;;;;0.30;0.30;;;5.10;55.90;;;;;;5114937;27;20253;-86
2022/04/17 03:26:30;;;;;;;0.40;0.40;;;5.00;56.90;;;;;;5115095;27;20259;-86
2022/04/17 03:28:58;;;;;;;0.30;0.20;;;4.90;58.90;;;;;;5090963;27;20190;-87
2022/04/17 03:31:25;;;;;;;0.30;0.20;;;4.90;56.70;;;;;;5102566;27;20189;-87
2022/04/17 03:33:53;;;;;;;0.40;0.30;;;5.00;56.80;;;;;;5111191;27;20278;-86
2022/04/17 03:36:20;;;;;;;0.30;0.20;;;4.90;56.50;;;;;;5121849;27;20233;-87
2022/04/17 03:38:47;;;;;;;1.15;0.50;;;4.80;57.20;;;;;;5128893;27;20185;-85
2022/04/17 03:41:14;;;;;;;1.02;0.60;;;4.80;57.50;;;;;;5109330;27;20255;-86
2022/04/17 03:43:42;;;;;;;0.30;0.20;;;4.40;57.60;;;;;;5110810;27;20596;-88
2022/04/17 03:46:09;;;;;;;0.45;0.40;;;5.00;57.60;;;;;;5106675;28;20228;-86
2022/04/17 03:48:35;;;;;;;0.30;0.30;;;5.10;67.00;;;;;;5108025;28;20214;-86
2022/04/17 03:51:04;;;;;;;0.30;0.20;;;4.50;58.10;;;;;;5110943;28;20277;-87
2022/04/17 03:53:31;;;;;;;0.60;0.47;;;4.70;61.90;;;;;;5109435;28;20635;-86
2022/04/17 03:55:57;;;;;;;0.50;0.50;;;4.70;57.20;;;;;;5093123;28;20272;-85
2022/04/17 03:58:24;;;;;;;0.40;0.30;;;5.10;58.60;;;;;;5114328;28;20728;-85
2022/04/17 04:00:51;;;;;;;0.30;0.30;;;4.60;62.10;;;;;;5125304;27;20212;-85
2022/04/17 04:03:18;;;;;;;0.63;0.50;;;4.70;57.10;;;;;;5116244;28;20189;-85
2022/04/17 04:05:46;;;;;;;0.30;0.30;;;4.70;56.60;;;;;;5111710;27;20700;-87
2022/04/17 04:08:14;;;;;;;0.40;0.30;;;4.70;77.30;;;;;;5109308;28;20197;-86
2022/04/17 04:10:41;;;;;;;0.70;0.57;;;4.60;56.90;;;;;;5115900;28;20236;-85
2022/04/17 04:13:08;;;;;;;1.13;0.52;;;4.80;71.10;;;;;;5111527;27;20194;-87
2022/04/17 04:15:35;;;;;;;0.65;0.65;;;5.00;71.70;;;;;;5112027;27;20210;-86
2022/04/17 04:18:02;;;;;;;1.20;0.55;;;5.00;74.40;;;;;;5128448;27;20242;-86
2022/04/17 04:20:29;;;;;;;0.30;0.20;;;5.00;57.60;;;;;;5118065;27;20208;-86
2022/04/17 04:22:56;;;;;;;0.40;0.30;;;4.60;57.10;;;;;;5131605;27;20193;-85
2022/04/17 04:25:24;;;;;;;0.30;0.20;;;4.70;56.50;;;;;;5119250;27;20637;-86
2022/04/17 04:30:36;;;;;;;0.90;0.90;;;4.70;67.50;;;;;;5113215;27;20201;-87
2022/04/17 04:33:03;;;;;;;0.30;0.30;;;;;;;;;;5117421;27;20193;-87
2022/04/17 04:35:30;;;;;;;0.30;0.30;;;;;;;;;;5113688;27;20189;-86
2022/04/17 04:38:00;;;;;;;1.05;1.05;;;;;;;;;;5118153;27;20197;-86
2022/04/17 04:40:29;;;;;;;0.30;0.20;;;4.60;93.50;;;;;;5121768;27;20625;-87
2022/04/17 04:43:01;;;;;;;0.30;0.30;;;4.70;74.30;;;;;;5114499;27;20274;-87
2022/04/17 04:48:13;;;;;;;0.30;0.20;;;4.50;56.70;;;;;;5114248;27;20317;-87
2022/04/17 04:50:40;;;;;;;0.30;0.20;;;;;;;;;;5126969;27;20255;-86
2022/04/17 04:53:08;;;;;;;0.30;0.20;;;;;;;;;;5131663;27;20193;-86
2022/04/17 04:55:36;;;;;;;0.30;0.20;;;;;;;;;;5129798;27;20205;-86
2022/04/17 04:58:03;;;;;;;0.70;0.50;;;;;;;;;;5118618;27;20285;-87
2022/04/17 05:00:30;;;;;;;0.30;0.20;;;;;;;;;;5119815;27;20224;-87
2022/04/17 05:02:59;;;;;;;0.30;0.20;;;;;;;;;;5110718;27;20555;-85
2022/04/17 05:05:26;;;;;;;0.30;0.20;;;;;;;;;;5121987;27;20698;-87
2022/04/17 05:07:53;;;;;;;0.73;0.73;;;;;;;;;;5131690;27;20254;-86
2022/04/17 05:10:20;;;;;;;0.30;0.30;;;;;;;;;;5127990;27;20221;-86
2022/04/17 05:12:49;;;;;;;0.30;0.20;;;;;;;;;;5131033;27;20283;-86
2022/04/17 05:15:16;;;;;;;0.30;0.25;;;;;;;;;;5124749;27;20197;-86
2022/04/17 05:17:44;;;;;;;0.30;0.20;;;;;;;;;;5130713;27;20682;-86
2022/04/17 05:20:11;;;;;;;0.30;0.20;;;;;;;;;;5111339;27;20278;-86
2022/04/17 05:22:38;;;;;;;0.30;0.28;;;;;;;;;;5117666;27;20229;-85
2022/04/17 05:25:06;;;;;;;0.30;0.20;;;;;;;;;;5114264;27;20257;-85
2022/04/17 05:27:33;;;;;;;0.30;0.20;;;;;;;;;;5094616;28;20238;-87
2022/04/17 05:30:02;;;;;;;0.30;0.20;;;;;;;;;;5110226;27;20594;-85
2022/04/17 05:32:29;;;;;;;0.30;0.20;;;;;;;;;;5131199;27;20296;-87
2022/04/17 05:34:56;;;;;;;0.30;0.28;;;;;;;;;;5113270;27;20692;-85
2022/04/17 05:37:24;;;;;;;0.30;0.20;;;;;;;;;;5116004;27;20196;-85
2022/04/17 05:39:51;;;;;;;0.30;0.20;;;;;;;;;;5129997;27;20300;-86
2022/04/17 05:42:24;;;;;;;1.55;1.05;;;;;;;;;;5126955;27;20245;-86
2022/04/17 05:44:53;;;;;;;0.30;0.20;;;5.80;71.40;;;;;;5112527;27;20627;-84
2022/04/17 05:47:21;;;;;;;0.30;0.20;;;5.60;75.00;;;;;;5131190;27;20250;-85
2022/04/17 05:49:48;;;;;;;0.30;0.20;;;;;;;;;;5129126;27;20242;-86
2022/04/17 05:52:15;;;;;;;0.30;0.20;;;;;;;;;;5130555;27;20208;-86
2022/04/17 05:54:43;;;;;;;0.47;0.40;;;;;;;;;;5128877;27;20197;-85
2022/04/17 05:57:10;;;;;;;2.67;2.47;;;;;;;;;;5123451;27;20221;-85
2022/04/17 05:59:38;;;;;;;0.30;0.30;;;6.10;67.40;;;;;;5109813;28;20210;-85
2022/04/17 06:02:08;;;;;;;0.30;0.20;;;6.10;53.00;;;;;;5122004;27;20197;-87
2022/04/17 06:04:37;;;;;;;0.30;0.20;;;;;;;;;;5108402;27;20225;-88
2022/04/17 06:07:04;;;;;;;0.30;0.30;;;;;;;;;;5103860;28;20748;-87
2022/04/17 06:09:32;;;;;;;0.30;0.30;;;;;;;;;;5088409;28;20221;-85
2022/04/17 06:11:59;;;;;;;0.30;0.20;;;;;;;;;;5089365;27;20195;-87
2022/04/17 06:14:28;;;;;;;0.30;0.20;;;;;;;;;;5119729;27;20201;-87
2022/04/17 06:17:00;;;;;;;0.40;0.40;;;;;;;;;;5107992;27;20194;-84
2022/04/17 06:19:27;;;;;;;0.30;0.20;;;;;;;;;;5109052;27;20197;-85
2022/04/17 06:21:56;;;;;;;0.30;0.20;;;;;;;;;;5105751;27;20733;-84
2022/04/17 06:24:23;;;;;;;0.30;0.20;;;;;;;;;;5109183;27;20251;-84
2022/04/17 06:26:50;;;;;;;0.30;0.20;;;;;;;;;;5107673;27;20668;-85
2022/04/17 06:29:18;;;;;;;0.40;0.30;;;;;;;;;;5110038;27;20190;-86
2022/04/17 06:31:46;;;;;;;0.50;0.40;;;;;;;;;;5110959;27;20221;-85
2022/04/17 06:34:13;;;;;;;0.43;0.43;;;;;;;;;;5107973;28;20222;-83
2022/04/17 06:36:40;;;;;;;0.40;0.30;;;;;;;;;;5108069;27;20277;-85
2022/04/17 06:39:09;;;;;;;0.30;0.20;;;;;;;;;;5111508;27;20197;-84
2022/04/17 06:41:36;;;;;;;1.30;0.82;;;;;;;;;;5120916;27;20692;-84
2022/04/17 06:44:03;;;;;;;0.40;0.30;;;;;;;;;;5110156;27;20221;-85
2022/04/17 06:46:31;;;;;;;0.82;0.82;;;;;;;;;;5128766;27;20274;-85
2022/04/17 06:48:59;;;;;;;0.30;0.20;;;;;;;;;;5127557;27;20194;-84
2022/04/17 06:51:26;;;;;;;0.30;0.25;;;;;;;;;;5126460;27;20732;-86
2022/04/17 06:53:53;;;;;;;0.60;0.60;;;7.70;51.10;;;;;;5116471;27;20195;-84
2022/04/17 06:56:21;;;;;;;0.40;0.30;;;7.70;51.50;;;;;;5109778;27;20198;-85
2022/04/17 06:58:48;;;;;;;3.00;0.43;;;7.80;51.00;;;;;;5111725;27;20206;-86
2022/04/17 07:01:16;;;;;;;0.80;0.35;;;7.90;50.90;;;;;;5113446;27;20195;-85
2022/04/17 07:03:43;;;;;;;0.80;0.63;;;8.20;50.30;;;;;;5110031;27;20233;-83
2022/04/17 07:06:10;;;;;;;0.40;0.40;;;8.10;49.60;;;;;;5126384;27;20638;-84
2022/04/17 07:08:37;;;;;;;0.30;0.20;;;7.70;49.80;;;;;;5127623;27;20256;-84
2022/04/17 07:11:04;;;;;;;0.75;0.73;;;8.00;50.00;;;;;;5109646;27;20199;-84
2022/04/17 07:13:33;;;;;;;0.30;0.17;;;8.20;49.80;;;;;;5120347;27;20202;-83
2022/04/17 07:15:59;;;;;;;0.30;0.25;;;8.20;49.40;;;;;;5109145;27;20201;-84
2022/04/17 07:18:26;;;;;;;0.30;0.20;;;8.40;49.10;;;;;;5122390;27;20210;-84
2022/04/17 07:20:53;;;;;;;0.30;0.22;;;8.40;49.40;;;;;;5121554;27;20317;-84
2022/04/17 07:23:20;;;;;;;0.30;0.20;;;8.40;49.10;;;;;;5118692;27;20326;-84
2022/04/17 07:25:47;;;;;;;0.50;0.30;;;8.50;49.00;;;;;;5108945;27;20228;-85
2022/04/17 07:28:14;;;;;;;0.30;0.20;;;8.60;49.30;;;;;;5087991;28;20269;-85
2022/04/17 07:30:42;;;;;;;0.40;0.30;;;8.70;48.90;;;;;;5106104;27;20258;-85
2022/04/17 07:33:09;;;;;;;0.30;0.20;;;8.80;48.50;;;;;;5118671;27;20306;-84
2022/04/17 07:35:36;;;;;;;0.30;0.20;;;8.80;47.90;;;;;;5117171;27;20295;-83
2022/04/17 07:38:04;;;;;;;0.30;0.10;;;8.90;47.70;;;;;;5128514;27;20236;-84
2022/04/17 07:40:33;;;;;;;0.40;0.32;;;8.90;47.90;;;;;;5118394;27;20290;-84
2022/04/17 07:43:02;;;;;;;0.55;0.50;;;9.00;48.20;;;;;;5108213;28;20215;-85
2022/04/17 07:45:30;;;;;;;0.47;0.45;;;9.00;48.80;;;;;;5110896;28;20219;-84
2022/04/17 07:47:59;;;;;;;0.40;0.22;;;9.20;47.90;;;;;;5108163;28;20726;-85
2022/04/17 07:50:27;;;;;;;0.30;0.20;;;9.30;48.40;;;;;;5108532;28;20725;-86
2022/04/17 07:52:54;;;;;;;0.30;0.20;;;9.40;47.50;;;;;;5129062;27;20201;-84
2022/04/17 07:55:22;;;;;;;0.40;0.20;;;9.40;47.30;;;;;;5122129;27;20734;-84
2022/04/17 07:58:07;;;;;;;0.65;0.50;;;9.40;47.00;;;;;;5112333;28;20661;-84
2022/04/17 08:00:43;;;;;;;0.30;0.20;;;9.50;46.70;;;;;;5124698;27;20260;-84
2022/04/17 08:03:24;;;;;;;0.30;0.10;;;9.50;47.40;;;;;;5118624;27;20198;-84
2022/04/17 08:05:52;;;;;;;0.40;0.30;;;9.60;47.30;;;;;;5111902;27;20236;-85
2022/04/17 08:08:19;;;;;;;0.40;0.40;;;9.80;47.30;;;;;;5113018;27;20284;-84
2022/04/17 08:10:46;;;;;;;0.53;0.50;;;9.90;46.90;;;;;;5116196;27;21066;-85
2022/04/17 08:13:13;;;;;;;0.77;0.77;;;9.80;46.60;;;;;;5122687;27;20626;-84
2022/04/17 08:15:40;;;;;;;1.15;0.80;;;10.00;45.80;;;;;;5113989;27;20652;-84
2022/04/17 08:18:07;;;;;;;0.30;0.20;;;9.90;46.90;;;;;;5122589;27;20281;-87
2022/04/17 08:20:35;;;;;;;0.30;0.20;;;10.10;45.90;;;;;;5124516;27;20728;-87
2022/04/17 08:23:02;;;;;;;0.88;0.52;;;10.30;46.30;;;;;;5122936;27;20259;-86
2022/04/17 08:25:29;;;;;;;0.43;0.43;;;10.30;45.50;;;;;;5126209;27;20248;-87
2022/04/17 08:27:57;;;;;;;0.40;0.20;;;10.40;46.20;;;;;;5122147;27;20288;-86
2022/04/17 08:30:25;;;;;;;0.40;0.40;;;10.50;46.80;;;;;;5121474;27;20273;-86
2022/04/17 08:32:52;;;;;;;1.15;0.52;;;10.50;45.10;;;;;;5132430;27;20667;-84
2022/04/17 08:35:20;;;;;;;0.30;0.20;;;10.60;45.70;;;;;;5127047;27;20272;-86
2022/04/17 08:37:49;;;;;;;0.30;0.20;;;10.70;45.10;;;;;;5123946;27;20688;-87
2022/04/17 08:40:16;;;;;;;0.30;0.30;;;10.80;45.00;;;;;;5110580;27;20887;-85
2022/04/17 08:42:45;;;;;;;0.50;0.40;;;10.90;43.20;;;;;;5111628;27;20627;-83
2022/04/17 08:45:14;;;;;;;0.30;0.20;;;10.80;42.50;;;;;;5117824;27;20630;-83
2022/04/17 08:47:42;;;;;;;0.40;0.30;;;10.90;42.70;;;;;;5132087;27;20618;-84
2022/04/17 08:50:09;;;;;;;0.97;0.97;;;10.90;42.50;;;;;;5113350;27;20655;-84
2022/04/17 08:52:38;;;;;;;0.30;0.20;;;11.00;42.00;;;;;;5110710;28;20638;-85
2022/04/17 08:55:07;;;;;;;0.87;0.87;;;11.00;42.80;;;;;;5126211;27;20611;-86
2022/04/17 08:57:34;;;;;;;0.60;0.60;;;11.20;43.10;;;;;;5120176;27;21197;-86
2022/04/17 09:00:03;;;;;;;0.57;0.57;;;11.30;43.50;;;;;;5120704;27;20630;-85
2022/04/17 09:02:30;;;;;;;0.43;0.27;;;11.40;41.10;;;;;;5117787;27;20615;-85
2022/04/17 09:04:57;;;;;;;0.30;0.20;;;11.30;41.10;;;;;;5109666;27;20635;-84
2022/04/17 09:07:24;;;;;;;0.30;0.20;;;11.30;42.30;;;;;;5109729;27;20699;-85
2022/04/17 09:09:54;;;;;;;0.70;0.37;;;11.40;41.50;;;;;;5110113;27;20650;-86
2022/04/17 09:12:24;;;;;;;0.30;0.20;;;11.50;41.70;;;;;;5111079;27;20650;-86
2022/04/17 09:14:51;;;;;;;0.30;0.17;;;11.50;41.00;;;;;;5109900;28;20615;-86
2022/04/17 09:17:19;;;;;;;0.30;0.10;;;11.60;41.30;;;;;;5116901;27;20626;-85
2022/04/17 09:19:46;;;;;;;0.30;0.23;;;11.70;41.80;;;;;;5120716;27;20980;-86
2022/04/17 09:22:13;;;;;;;0.30;0.20;;;11.80;41.70;;;;;;5110360;27;20746;-85
2022/04/17 09:24:41;;;;;;;0.40;0.20;;;11.80;41.10;;;;;;5099894;27;21212;-85
2022/04/17 09:27:11;;;;;;;0.30;0.20;;;11.90;41.10;;;;;;5113189;27;20698;-86
2022/04/17 09:29:41;;;;;;;0.50;0.30;;;12.00;42.10;;;;;;5110427;27;20645;-86
2022/04/17 09:32:09;;;;;;;0.37;0.30;;;12.20;41.00;;;;;;5109932;28;20619;-86
2022/04/17 09:34:43;;;;;;;0.37;0.27;;;12.20;41.50;;;;;;5109757;27;20643;-85
2022/04/17 09:37:13;;;;;;;0.40;0.40;;;12.20;41.50;;;;;;5110609;27;20614;-85
2022/04/17 09:39:40;;;;;;;0.57;0.40;;;12.30;42.30;;;;;;5116026;27;20618;-85
2022/04/17 09:42:08;;;;;;;0.30;0.20;;;12.40;40.90;;;;;;5118653;27;21076;-86
2022/04/17 09:44:36;;;;;;;0.40;0.37;;;12.50;41.10;;;;;;5110054;27;20723;-86
2022/04/17 09:47:06;;;;;;;0.30;0.30;;;12.70;40.70;;;;;;5107638;27;20712;-86
2022/04/17 09:49:51;;;;;;;0.40;0.20;;;12.60;39.40;;;;;;5127805;27;20630;-85
2022/04/17 09:52:19;;;;;;;0.33;0.27;;;12.60;39.10;;;;;;5109275;27;20633;-86
2022/04/17 09:54:46;;;;;;;0.30;0.20;;;12.50;39.30;;;;;;5127645;27;20614;-85
2022/04/17 09:57:19;;;;;;;0.40;0.20;;;12.60;40.00;;;;;;5097525;27;20682;-85
2022/04/17 09:59:47;;;;;;;0.30;0.30;;;12.60;39.80;;;;;;5118302;27;20835;-86
2022/04/17 10:02:16;;;;;;;0.30;0.20;;;12.60;39.50;;;;;;5106647;28;20620;-86
2022/04/17 10:04:45;;;;;;;0.40;0.30;;;12.70;39.70;;;;;;5108687;27;20929;-85
2022/04/17 10:07:14;;;;;;;0.30;0.20;;;12.80;40.60;;;;;;5109245;27;20655;-85
2022/04/17 10:09:41;;;;;;;0.40;0.40;;;13.00;41.10;;;;;;5113645;27;20634;-86
2022/04/17 10:12:08;;;;;;;0.40;0.30;;;13.00;41.10;;;;;;5110344;27;20620;-85
2022/04/17 10:14:37;;;;;;;0.30;0.30;;;13.10;40.50;;;;;;5112102;27;21173;-85
2022/04/17 10:17:13;;;;;;;0.40;0.40;;;13.20;40.60;;;;;;5106779;27;20693;-90
2022/04/17 10:19:49;;;;;;;0.30;0.20;;;13.40;40.80;;;;;;5108244;27;20627;-89
2022/04/17 10:23:02;;;;;;;0.40;0.40;;;13.50;39.80;;;;;;5108233;28;20743;-90
2022/04/17 10:26:01;;;;;;;0.50;0.37;;;13.40;39.50;;;;;;5107486;27;20603;-90
2022/04/17 10:28:38;;;;;;;0.70;0.40;;;13.40;40.60;;;;;;5110528;28;20712;-90
2022/04/17 10:31:25;;;;;;;1.23;0.73;;;13.60;40.00;;;;;;5108763;27;21201;-89
2022/04/17 10:34:24;;;;;;;0.30;0.30;;;13.80;40.80;;;;;;5111319;27;20716;-89
2022/04/17 10:37:03;;;;;;;0.40;0.20;;;13.80;41.00;;;;;;5120354;27;21219;-86
2022/04/17 10:39:36;;;;;;;0.47;0.47;;;14.00;41.20;;;;;;5113595;27;20616;-86
2022/04/17 10:42:07;;;;;;;0.40;0.40;;;14.00;41.90;;;;;;5118704;27;20617;-85
2022/04/17 10:44:37;;;;;;;0.30;0.20;;;14.10;40.80;;;;;;5125676;27;20720;-86
2022/04/17 10:47:05;;;;;;;0.33;0.30;;;14.20;40.10;;;;;;5106870;27;21242;-85
2022/04/17 10:49:32;;;;;;;0.30;0.20;;;14.10;39.90;;;;;;5124640;27;20710;-86
2022/04/17 10:52:00;;;;;;;0.40;0.33;;;14.30;39.80;;;;;;5115902;27;21210;-85
2022/04/17 10:54:51;;;;;;;0.80;0.60;;;14.40;40.00;;;;;;5120365;27;20643;-85
2022/04/17 10:57:23;;;;;;;0.40;0.30;;;14.60;39.70;;;;;;5087523;28;20627;-84
2022/04/17 10:59:50;;;;;;;0.50;0.50;;;14.60;39.20;;;;;;5094382;27;20652;-85
2022/04/17 11:02:25;;;;;;;0.40;0.30;;;14.70;38.90;;;;;;5109022;28;20701;-84
2022/04/17 11:04:54;;;;;;;0.43;0.40;;;14.80;39.00;;;;;;5110096;27;20664;-85
2022/04/17 11:07:27;;;;;;;0.30;0.30;;;14.90;39.40;;;;;;5109972;27;20777;-85
2022/04/17 11:10:23;;;;;;;0.30;0.30;;;15.00;40.20;;;;;;5122730;27;20731;-85
2022/04/17 11:12:56;;;;;;;0.40;0.40;;;15.20;39.10;;;;;;5110887;27;20613;-85
2022/04/17 11:15:25;;;;;;;0.70;0.33;;;15.40;38.90;;;;;;5126463;27;21208;-86
2022/04/17 11:17:52;;;;;;;0.50;0.50;;;15.50;39.10;;;;;;5116270;27;20599;-85
2022/04/17 11:20:20;;;;;;;0.30;0.20;;;;;;;;;;5109290;27;20649;-85
2022/04/17 11:22:49;;;;;;;0.50;0.50;;;;;;;;;;5103145;28;21243;-86
2022/04/17 11:25:16;;;;;;;1.33;0.67;;;;;;;;;;5118360;27;21183;-85
2022/04/17 11:27:49;;;;;;;0.63;0.30;;;15.90;50.20;;;;;;5099936;27;21241;-85
2022/04/17 11:30:34;;;;;;;0.30;0.20;;;16.10;40.20;;;;;;5108586;27;20746;-85
2022/04/17 11:33:03;;;;;;;0.30;0.20;;;16.40;39.80;;;;;;5117336;27;21213;-85
2022/04/17 11:35:30;;;;;;;0.30;0.30;;;16.60;39.20;;;;;;5109114;27;21276;-85
2022/04/17 11:38:06;;;;;;;0.40;0.20;;;17.00;38.10;;;;;;5113542;27;20607;-85
2022/04/17 11:40:36;;;;;;;0.50;0.50;;;17.10;36.50;;;;;;5105771;28;20670;-87
2022/04/17 11:43:07;;;;;;;0.50;0.20;;;17.30;36.70;;;;;;5105935;28;20967;-86
2022/04/17 11:45:35;;;;;;;0.50;0.50;;;17.70;37.60;;;;;;5106951;28;20615;-86
2022/04/17 11:48:07;;;;;;;0.40;0.30;;;18.00;37.70;;;;;;5107669;28;20691;-86
2022/04/17 11:50:35;;;;;;;0.50;0.47;;;18.40;36.70;;;;;;5110456;28;20627;-86
2022/04/17 11:53:03;;;;;;;0.30;0.30;;;18.70;36.50;;;;;;5112761;27;20632;-87
2022/04/17 11:55:34;;;;;;;0.63;0.40;;;19.90;36.10;;;;;;5113828;28;21077;-86
2022/04/17 11:58:02;;;;;;;0.40;0.30;;;20.60;35.60;;;;;;5107755;28;21224;-83
2022/04/17 12:00:31;;;;;;;0.50;0.40;;;21.20;35.10;;;;;;5121099;28;20656;-84
2022/04/17 12:02:59;;;;;;;0.53;0.53;;;22.20;33.60;;;;;;5095863;28;20627;-85
2022/04/17 12:05:27;;;;;;;0.97;0.50;;;22.80;32.90;;;;;;5117634;28;20651;-86
2022/04/17 12:08:06;;;;;;;0.50;0.40;;;23.40;32.00;;;;;;5112299;28;20686;-85
2022/04/17 12:10:35;;;;;;;0.30;0.20;;;23.70;30.60;;;;;;5125886;27;20697;-86
2022/04/17 12:13:17;;;;;;;0.40;0.30;;;23.70;30.80;;;;;;5108243;28;21040;-86
2022/04/17 12:15:45;;;;;;;0.60;0.43;;;23.80;32.30;;;;;;5118254;28;20618;-86
2022/04/17 12:18:16;;;;;;;0.60;0.40;;;23.30;31.90;;;;;;5123421;27;20670;-87
2022/04/17 12:20:43;;;;;;;0.50;0.50;;;24.00;30.80;;;;;;5106604;28;20659;-87
2022/04/17 12:23:11;;;;;;;0.40;0.40;;;24.20;30.30;;;;;;5101553;28;20623;-86
2022/04/17 12:25:39;;;;;;;1.13;0.73;;;24.30;30.00;;;;;;5106538;28;20634;-87
2022/04/17 12:28:08;;;;;;;0.60;0.60;;;23.60;30.00;;;;;;5116151;28;20738;-87
2022/04/17 12:30:35;;;;;;;0.50;0.50;;;23.00;30.90;;;;;;5114826;28;20841;-87
2022/04/17 12:33:02;;;;;;;1.33;0.63;;;22.40;31.60;;;;;;5106400;28;20632;-85
2022/04/17 12:35:30;;;;;;;0.60;0.50;;;22.20;31.70;;;;;;5107268;28;20714;-87
2022/04/17 12:38:04;;;;;;;0.50;0.30;;;22.90;31.40;;;;;;5103797;28;21036;-86
2022/04/17 12:40:38;;;;;;;0.60;0.50;;;23.00;31.00;;;;;;5118158;27;20734;-87
2022/04/17 12:43:17;;;;;;;0.40;0.37;;;23.90;29.90;;;;;;5125269;27;20633;-89
2022/04/17 12:45:55;;;;;;;0.40;0.40;;;24.70;30.90;;;;;;5114470;27;20608;-87
2022/04/17 12:48:29;;;;;;;0.47;0.40;;;24.90;29.80;;;;;;5110926;27;20607;-89
2022/04/17 12:50:57;;;;;;;0.70;0.70;;;25.50;29.10;;;;;;5097543;27;21213;-87
2022/04/17 12:53:24;;;;;;;0.40;0.30;;;25.80;29.00;;;;;;5112189;27;20649;-87
2022/04/17 12:55:53;;;;;;;0.73;0.73;;;26.20;28.90;;;;;;5127205;27;20614;-87
2022/04/17 12:58:22;;;;;;;0.40;0.30;;;26.30;28.90;;;;;;5111662;27;20671;-88
2022/04/17 13:00:59;;;;;;;0.60;0.60;;;26.30;28.90;;;;;;5127662;27;20622;-87
2022/04/17 13:03:36;;;;;;;0.63;0.50;;;26.60;29.10;;;;;;5092454;28;20659;-87
2022/04/17 13:06:05;;;;;;;0.40;0.40;;;26.70;29.20;;;;;;5108898;27;20663;-86
2022/04/17 13:08:32;;;;;;;0.80;0.53;;;26.60;29.00;;;;;;5090222;28;20632;-86
2022/04/17 13:10:59;;;;;;;0.60;0.50;;;27.40;28.50;;;;;;5121138;27;20626;-86
2022/04/17 13:13:37;;;;;;;0.70;0.50;;;27.80;27.90;;;;;;5111240;27;21132;-86
2022/04/17 13:16:06;;;;;;;0.40;0.40;;;27.70;27.90;;;;;;5109952;27;21259;-87
2022/04/17 13:18:34;;;;;;;0.50;0.50;;;27.70;27.40;;;;;;5111039;28;20686;-86
2022/04/17 13:21:01;;;;;;;0.87;0.50;;;27.70;27.70;;;;;;5109767;27;20620;-86
2022/04/17 13:23:28;;;;;;;0.80;0.60;;;27.60;27.70;;;;;;5094897;28;20648;-86
2022/04/17 13:25:55;;;;;;;0.80;0.33;;;27.80;27.60;;;;;;5101397;28;20627;-85
2022/04/17 13:28:22;;;;;;;0.30;0.30;;;28.00;27.40;;;;;;5121261;27;20683;-87
2022/04/17 13:30:52;;;;;;;0.53;0.50;;;28.00;27.30;;;;;;5108514;27;20620;-86